Cold Creek, Nevada
Current Conditions -  °F | °C
As of 12:56 AM on Monday 24 Nov 2014 (Local Time) from KHND Reporting Station
Clear Clear  
Wind Chill: 34°   Ceiling: Unl
Heat Index: 40°   Visibility: 10mi
Dew Point:   Wind: 8mph
Humidity: 27%   Direction: 190°S
Pressure: 30.28"   Gusts: NA
Location:  35.8437°N, 115.134°W
Report Text: KHND 240856Z 19007KT 10SM CLR 04/M13 A3028 RMK AO2 50004 T00441133 SLP257
Loading
Personal Weather Stations






























Interactive Weather Map New forecast layout! Learn more

10-Day Weather Forecast

Advertisements
Track Severe Weather on mobile